Latest Weather Observations for Shepparton

IDV60801

Issued at 5:32 pm EST Monday 6 July 2020 (issued every 10 minutes, with the page automatically refreshed every 10 minutes)

About weather observations | Map of weather stations | Latest weather observations for VIC | Other Formats
Station Details ID: 081125 Name: SHEPPARTON AIRPORT Lat: -36.43 Lon: 145.39 Height: 113.9 m
Data from the previous 72 hours. | See also: Recent months at Shepparton
Date/Time
EST
Temp
°C
App
Temp
°C
Dew
Point
°C
Rel
Hum
%
Delta-T
°C
Wind Press
QNH
hPa
Press
MSL
hPa
Rain since
9am
mm
Dir  Spd
km/h
Gust
km/h
Spd
kts
Gust
kts
06/05:30pm 11.5 8.3 6.8 73 2.2 SSW 13 17 7 9 1030.1 1030.3 0.0
06/05:00pm 11.8 7.9 7.1 73 2.2 S 17 26 9 14 1030.0 1030.2 0.0
06/04:30pm 11.8 8.6 8.3 79 1.7 S 15 20 8 11 1029.9 1030.1 0.0
06/04:00pm 12.0 8.3 7.9 76 2.0 SSW 17 22 9 12 1029.7 1029.9 0.0
06/03:30pm 12.0 7.8 8.3 78 1.8 SSW 20 26 11 14 1029.5 1029.7 0.0
06/03:00pm 12.1 7.9 8.4 78 1.8 SW 20 30 11 16 1029.6 1029.8 0.0
06/02:30pm 12.2 8.0 8.3 77 1.9 SSW 20 30 11 16 1029.5 1029.7 0.0
06/02:00pm 12.4 8.2 8.1 75 2.1 SSW 20 30 11 16 1029.6 1029.8 0.0
06/01:30pm 12.8 8.1 7.9 72 2.4 SSW 22 32 12 17 1029.7 1029.9 0.0
06/01:00pm 12.7 7.2 7.4 70 2.6 S 26 35 14 19 1029.9 1030.1 0.0
06/12:30pm 12.7 8.3 7.6 71 2.5 SSW 20 30 11 16 1030.2 1030.4 0.0
06/12:00pm 12.7 8.5 7.4 70 2.6 SSW 19 28 10 15 1030.4 1030.6 0.0
06/11:30am 12.6 8.4 7.5 71 2.5 S 19 26 10 14 1030.5 1030.7 0.0
06/11:00am 12.0 8.2 7.5 74 2.2 S 17 24 9 13 1030.9 1031.1 0.0
06/10:30am 11.3 7.4 7.2 76 2.0 SSW 17 22 9 12 1031.1 1031.3 0.0
06/10:00am 10.6 7.2 7.8 83 1.3 SSW 15 20 8 11 1031.0 1031.2 0.0
06/09:30am 9.2 5.8 7.6 90 0.8 WSW 15 20 8 11 1031.0 1031.2 0.0
06/09:00am 8.3 4.9 7.7 96 0.3 WSW 15 22 8 12 1030.8 1031.0 0.0
06/08:30am 7.4 4.3 7.3 99 0.0 WSW 13 17 7 9 1030.6 1030.8 0.0
06/08:00am 5.9 2.9 5.8 99 0.0 SW 11 13 6 7 1030.4 1030.6 0.0
06/07:30am 6.2 3.2 6.1 99 0.0 SW 11 13 6 7 1030.1 1030.3 0.0
06/07:00am 7.0 3.4 6.9 99 0.0 SW 15 17 8 9 1029.7 1029.9 0.0
06/06:30am 7.5 3.6 7.1 97 0.2 SW 17 20 9 11 1029.3 1029.5 0.0
06/06:00am 8.1 4.2 7.2 94 0.4 SW 17 20 9 11 1029.0 1029.2 0.0
06/05:30am 8.9 5.2 7.8 93 0.5 SW 17 20 9 11 1028.9 1029.1 0.0
06/05:00am 8.7 5.7 7.6 93 0.5 SW 13 19 7 10 1028.6 1028.8 0.0
06/04:30am 8.7 5.0 7.8 94 0.4 SSW 17 22 9 12 1028.5 1028.7 0.0
06/04:00am 9.0 4.3 7.8 92 0.6 SSW 22 30 12 16 1028.3 1028.6 0.0
06/03:30am 9.3 6.0 8.1 92 0.6 SSW 15 20 8 11 1028.5 1028.7 0.0
06/03:00am 9.2 6.4 8.4 95 0.4 SSW 13 19 7 10 1028.6 1028.8 0.0
06/02:30am 9.2 6.1 8.9 98 0.1 SSW 15 19 8 10 1028.5 1028.7 0.0
06/02:00am 9.2 6.6 9.2 100 0.0 SSW 13 15 7 8 1028.8 1029.0 0.0
06/01:30am 8.6 6.2 8.6 100 0.0 SSW 11 15 6 8 1028.7 1028.9 0.0
06/01:00am 7.3 5.0 7.3 100 0.0 SSW 9 11 5 6 1028.8 1029.0 0.0
06/12:30am 6.6 4.5 6.6 100 0.0 SSW 7 9 4 5 1028.9 1029.1 0.0
06/12:00am 5.7 4.7 5.7 100 0.0 CALM 0 0 0 0 1028.8 1029.0 0.0
 
Date/Time
EST
Temp
°C
App
Temp
°C
Dew
Point
°C
Rel
Hum
%
Delta-T
°C
Wind Press
QNH
hPa
Press
MSL
hPa
Rain since
9am
mm
Dir  Spd
km/h
Gust
km/h
Spd
kts
Gust
kts
05/11:30pm 5.3 4.2 5.2 99 0.0 CALM 0 4 0 2 1028.8 1029.0 0.0
05/11:00pm 6.0 2.6 5.9 99 0.0 SSW 13 15 7 8 1028.5 1028.7 0.0
05/10:30pm 6.9 4.1 6.8 99 0.0 SSW 11 15 6 8 1028.2 1028.5 0.0
05/10:00pm 6.8 3.6 6.7 99 0.0 SSW 13 15 7 8 1028.0 1028.3 0.0
05/09:30pm 6.4 2.7 6.3 99 0.0 SSW 15 17 8 9 1027.8 1028.1 0.0
05/09:00pm 6.3 3.3 5.9 97 0.2 SSW 11 13 6 7 1027.9 1028.2 0.0
05/08:30pm 7.5 5.3 6.3 92 0.5 SSW 7 9 4 5 1027.9 1028.2 0.0
05/08:00pm 8.3 5.2 7.1 92 0.6 SSW 13 17 7 9 1027.5 1027.8 0.0
05/07:30pm 8.3 5.4 6.6 89 0.8 SSW 11 17 6 9 1027.3 1027.6 0.0
05/07:00pm 9.5 5.7 7.6 88 0.9 SW 17 26 9 14 1027.1 1027.4 0.0
05/06:30pm 10.0 6.2 7.4 84 1.2 SSW 17 20 9 11 1026.8 1027.1 0.0
05/06:00pm 11.0 7.7 8.2 83 1.4 SSW 15 20 8 11 1026.6 1026.9 0.0
05/05:30pm 10.4 7.0 7.8 84 1.3 SSW 15 24 8 13 1026.2 1026.5 0.0
05/05:00pm 11.3 7.4 8.5 83 1.4 SW 19 24 10 13 1025.8 1026.1 0.0
05/04:30pm 11.2 7.9 7.9 80 1.6 SW 15 20 8 11 1025.9 1026.2 0.0
05/04:00pm 12.6 8.7 7.3 70 2.6 SSW 17 22 9 12 1025.7 1026.0 0.0
05/03:30pm 12.5 9.0 7.4 71 2.5 SSW 15 22 8 12 1025.9 1026.2 0.0
05/03:00pm 12.8 8.4 7.3 69 2.7 SSW 20 26 11 14 1025.9 1026.2 0.0
05/02:30pm 12.8 8.4 7.3 69 2.7 SSW 20 26 11 14 1025.9 1026.2 0.0
05/02:00pm 13.0 9.3 7.9 71 2.5 SSW 17 24 9 13 1025.9 1026.2 0.0
05/01:30pm 12.5 9.1 7.6 72 2.4 SSW 15 22 8 12 1026.1 1026.4 0.0
05/01:00pm 12.2 7.7 6.9 70 2.5 SSW 20 28 11 15 1026.2 1026.5 0.0
05/12:30pm 12.0 7.6 7.3 73 2.3 SSW 20 28 11 15 1026.6 1026.9 0.0
05/12:00pm 11.9 7.1 7.4 74 2.2 SW 22 35 12 19 1026.9 1027.2 0.0
05/11:30am 11.0 8.3 8.8 86 1.1 WSW 13 17 7 9 1027.2 1027.5 0.0
05/11:00am 10.6 7.1 8.7 88 0.9 WSW 17 24 9 13 1027.5 1027.8 0.0
05/10:30am 10.8 7.4 9.1 89 0.8 WSW 17 24 9 13 1027.3 1027.6 0.0
05/10:00am 10.0 6.2 9.2 95 0.4 WSW 19 26 10 14 1027.2 1027.5 0.0
05/09:30am 9.0 5.2 8.9 99 0.0 WSW 19 24 10 13 1027.0 1027.3 0.0
05/09:00am 7.5 4.1 7.5 100 0.0 WSW 15 20 8 11 1026.9 1027.2 0.2
05/08:30am 7.2 4.8 7.2 100 0.0 W 9 11 5 6 1026.8 1027.1 0.2
05/08:00am 7.2 4.5 7.2 100 0.0 W 11 13 6 7 1026.7 1027.0 0.2
05/07:30am 7.0 3.5 7.0 100 0.0 WSW 15 19 8 10 1026.4 1026.7 0.2
05/07:00am 6.7 3.1 6.6 99 0.0 WSW 15 17 8 9 1025.9 1026.2 0.2
05/06:30am 7.1 3.9 7.0 99 0.0 WSW 13 19 7 10 1025.6 1025.9 0.2
05/06:00am 6.9 3.3 6.9 100 0.0 WSW 15 17 8 9 1025.3 1025.6 0.2
05/05:30am 6.3 2.6 6.3 100 0.0 WSW 15 17 8 9 1025.2 1025.5 0.2
05/05:00am 6.6 2.6 6.6 100 0.0 W 17 19 9 10 1024.9 1025.2 0.2
05/04:30am 6.2 3.2 6.2 100 0.0 W 11 15 6 8 1024.8 1025.1 0.2
05/04:00am 7.0 3.8 7.0 100 0.0 W 13 17 7 9 1024.8 1025.1 0.2
05/03:30am 7.5 4.5 7.5 100 0.0 W 13 19 7 10 1024.8 1025.1 0.2
05/03:00am 8.0 4.7 8.0 100 0.0 W 15 19 8 10 1024.7 1025.0 0.2
05/02:30am 8.8 6.1 8.8 100 0.0 WNW 13 19 7 10 1024.9 1025.2 0.2
05/02:00am 8.9 5.8 8.9 100 0.0 W 15 19 8 10 1024.8 1025.1 0.2
05/01:30am 8.9 5.4 8.9 100 0.0 W 17 20 9 11 1024.7 1025.0 0.2
05/01:00am 8.6 5.4 8.6 100 0.0 W 15 20 8 11 1024.7 1025.0 0.2
05/12:30am 8.4 5.6 8.4 100 0.0 W 13 19 7 10 1024.7 1025.0 0.2
05/12:00am 8.2 5.3 8.2 100 0.0 W 13 17 7 9 1024.9 1025.2 0.2
 
Date/Time
EST
Temp
°C
App
Temp
°C
Dew
Point
°C
Rel
Hum
%
Delta-T
°C
Wind Press
QNH
hPa
Press
MSL
hPa
Rain since
9am
mm
Dir  Spd
km/h
Gust
km/h
Spd
kts
Gust
kts
04/11:30pm 8.6 5.8 8.6 100 0.0 W 13 17 7 9 1025.0 1025.3 0.2
04/11:00pm 8.9 5.8 8.9 100 0.0 W 15 19 8 10 1025.1 1025.4 0.2
04/10:30pm 9.5 6.2 9.5 100 0.0 WSW 17 24 9 13 1025.2 1025.5 0.2
04/10:00pm 9.7 7.2 9.7 100 0.0 W 13 19 7 10 1025.2 1025.5 0.2
04/09:30pm 9.7 7.6 9.7 100 0.0 W 11 13 6 7 1025.1 1025.4 0.2
04/09:00pm 9.6 7.5 9.6 100 0.0 W 11 13 6 7 1024.7 1025.0 0.2
04/08:30pm 9.9 7.8 9.9 100 0.0 W 11 15 6 8 1024.8 1025.1 0.2
04/08:00pm 9.9 7.5 9.9 100 0.0 WNW 13 17 7 9 1024.8 1025.1 0.2
04/07:30pm 9.8 6.9 9.8 100 0.0 W 15 20 8 11 1024.6 1024.9 0.2
04/07:00pm 9.9 7.1 9.9 100 0.0 WNW 15 20 8 11 1024.5 1024.8 0.2
04/06:30pm 10.0 7.6 9.9 99 0.1 W 13 17 7 9 1024.6 1024.9 0.2
04/06:00pm 10.0 6.7 9.7 98 0.2 W 17 22 9 12 1024.5 1024.8 0.2
04/05:30pm 10.5 6.5 9.1 91 0.7 W 20 28 11 15 1024.4 1024.7 0.2
04/05:00pm 10.9 6.9 9.0 88 0.9 W 20 28 11 15 1024.1 1024.4 0.2
04/04:30pm 11.3 7.5 9.0 86 1.2 W 19 26 10 14 1023.9 1024.2 0.2
04/04:00pm 11.7 7.6 8.7 82 1.5 W 20 28 11 15 1023.8 1024.0 0.2
04/03:30pm 11.5 8.9 9.4 87 1.1 W 13 24 7 13 1023.8 1024.0 0.2
04/03:00pm 11.4 8.3 9.0 85 1.2 WSW 15 24 8 13 1023.8 1024.0 0.2
04/02:30pm 10.8 6.6 8.4 85 1.2 W 20 28 11 15 1024.0 1024.3 0.2
04/02:00pm 10.9 5.2 8.3 84 1.3 WSW 28 35 15 19 1024.1 1024.4 0.0
04/01:30pm 10.5 5.8 7.9 84 1.3 W 22 32 12 17 1024.1 1024.4 0.0
04/01:00pm 10.9 6.4 8.5 85 1.2 WSW 22 33 12 18 1024.4 1024.7 0.0
04/12:30pm 10.4 5.7 7.6 83 1.4 WSW 22 32 12 17 1024.8 1025.1 0.0
04/12:00pm 10.1 6.2 7.3 83 1.3 WSW 17 22 9 12 1025.2 1025.5 0.0
04/11:30am 9.7 5.2 7.0 83 1.3 W 20 30 11 16 1025.7 1026.0 0.0
04/11:00am 9.2 4.9 7.2 87 0.9 W 19 24 10 13 1025.9 1026.2 0.0
04/10:30am 8.3 4.4 6.9 91 0.7 W 17 26 9 14 1026.0 1026.3 0.0
04/10:00am 7.2 2.7 6.3 94 0.4 W 19 28 10 15 1026.0 1026.3 0.0
04/09:30am 6.2 2.9 6.2 100 0.0 WSW 13 17 7 9 1025.9 1026.2 0.0
04/09:00am 4.5 1.2 4.5 100 0.0 WSW 11 15 6 8 1025.6 1025.9 9.8
04/08:30am 3.1 -0.1 3.1 100 0.0 WSW 9 11 5 6 1025.6 1025.9 9.8
04/08:00am 1.4 -2.5 1.4 100 0.0 WNW 11 13 6 7 1025.4 1025.7 9.8
04/07:30am 0.9 -3.0 0.9 100 0.0 WNW 11 13 6 7 1025.1 1025.4 9.8
04/07:00am 1.3 -1.8 1.3 100 0.0 WNW 7 9 4 5 1024.6 1024.9 9.8
04/06:30am 1.5 -2.0 1.5 100 0.0 WNW 9 11 5 6 1024.3 1024.6 9.8
04/06:00am 1.6 -1.3 1.6 100 0.0 WNW 6 9 3 5 1024.1 1024.4 9.8
04/05:30am 2.2 -0.8 2.2 100 0.0 WNW 7 9 4 5 1023.9 1024.2 9.8
04/05:00am 1.8 -1.6 1.8 100 0.0 WNW 9 13 5 7 1023.8 1024.0 9.8
04/04:30am 1.9 -1.1 1.9 100 0.0 WNW 7 9 4 5 1023.6 1023.8 9.8
04/04:00am 2.1 -1.6 2.1 100 0.0 WNW 11 13 6 7 1023.6 1023.8 9.8
04/03:30am 2.1 -0.9 2.1 100 0.0 NW 7 11 4 6 1023.8 1024.0 9.8
04/03:00am 2.0 -1.4 2.0 100 0.0 NW 9 9 5 5 1023.7 1023.9 9.8
04/02:30am 2.2 -1.2 2.1 99 0.0 NW 9 11 5 6 1023.6 1023.8 9.8
04/02:00am 2.1 -0.9 2.0 99 0.0 NW 7 9 4 5 1023.5 1023.7 9.8
04/01:30am 2.6 -0.3 2.5 99 0.0 WNW 7 9 4 5 1023.4 1023.6 9.8
04/01:00am 3.3 0.1 3.2 99 0.0 WNW 9 13 5 7 1023.2 1023.4 9.8
04/12:30am 2.9 0.0 2.8 99 0.0 WNW 7 11 4 6 1022.9 1023.1 9.8
04/12:00am 3.6 0.1 3.5 99 0.0 WNW 11 15 6 8 1022.8 1023.0 9.8
 
Date/Time
EST
Temp
°C
App
Temp
°C
Dew
Point
°C
Rel
Hum
%
Delta-T
°C
Wind Press
QNH
hPa
Press
MSL
hPa
Rain since
9am
mm
Dir  Spd
km/h
Gust
km/h
Spd
kts
Gust
kts
03/11:30pm 4.0 0.5 3.6 97 0.2 WSW 11 13 6 7 1022.6 1022.8 9.8
03/11:00pm 4.6 1.1 3.7 94 0.4 WSW 11 15 6 8 1022.4 1022.6 9.8
03/10:30pm 5.0 0.4 3.8 92 0.5 WSW 17 22 9 12 1022.1 1022.3 9.8
03/10:00pm 5.0 0.5 4.1 94 0.4 WSW 17 22 9 12 1021.6 1021.8 9.8
03/09:30pm 5.4 0.6 4.4 93 0.4 SW 19 26 10 14 1021.6 1021.8 9.8
03/09:00pm 5.6 0.8 4.6 93 0.4 SW 19 24 10 13 1021.2 1021.4 9.8
03/08:30pm 6.0 1.1 5.0 93 0.4 SW 20 30 11 16 1021.0 1021.2 9.8
03/08:00pm 6.2 1.3 5.2 93 0.4 SW 20 26 11 14 1020.8 1021.0 9.8
03/07:30pm 6.2 1.5 5.3 94 0.4 SW 19 26 10 14 1020.2 1020.4 9.8
03/07:00pm 6.5 0.8 5.1 91 0.6 SW 24 35 13 19 1019.7 1019.9 9.8
03/06:30pm 7.0 1.8 5.6 91 0.6 SSW 22 30 12 16 1019.1 1019.4 9.8
03/06:00pm 7.5 1.3 6.3 92 0.5 SSW 28 44 15 24 1018.7 1019.0 9.8
03/05:35pm 8.3 2.6 8.2 99 0.0 SW 28 59 15 32 1018.0 1018.3 9.8
03/05:34pm 8.4 3.1 8.3 99 0.0 SW 26 59 14 32 1018.0 1018.3 9.8

Other formats

Comma delimited format used in spreadsheet applications
http://www.bom.gov.au/fwo/IDV60801/IDV60801.94875.axf

JavaScript Object Notation format (JSON) in row-major order
http://www.bom.gov.au/fwo/IDV60801/IDV60801.94875.json

Data quality

Most of these data are generated automatically and are frequently updated. Quality checks on data are not normally performed. It is possible for incorrect values to appear. Refer to information at About Latest Weather Observations and please check the disclaimer before using these data.